Time;durP1;ratioP1;P1;durP2;ratioP2;P2;SDS_P1;SDS_P2;PMS_P1;PMS_P2;Temp;Humidity;BMP_temperature;BMP_pressure;BME280_temperature;BME280_humidity;BME280_pressure;Samples;Min_cycle;Max_cycle;Signal;HPM_P1;HPM_P2
2022/05/28 00:01:05;;;;;;;2.20;0.60;;;11.20;90.80;;;;;;4938296;28;20718;-76
2022/05/28 00:03:31;;;;;;;5.38;0.82;;;11.20;90.50;;;;;;4936340;28;20027;-76
2022/05/28 00:05:57;;;;;;;7.00;1.67;;;11.20;90.50;;;;;;4934363;28;20031;-76
2022/05/28 00:08:24;;;;;;;6.82;0.95;;;11.20;90.30;;;;;;4937584;28;20856;-76
2022/05/28 00:10:54;;;;;;;6.20;0.90;;;11.30;90.10;;;;;;4936828;28;20031;-75
2022/05/28 00:13:19;;;;;;;8.52;1.52;;;11.20;89.90;;;;;;4938513;28;20066;-76
2022/05/28 00:15:45;;;;;;;2.92;0.85;;;11.20;90.10;;;;;;4937159;28;20039;-76
2022/05/28 00:18:11;;;;;;;6.32;1.08;;;11.20;90.10;;;;;;4921442;28;20043;-76
2022/05/28 00:20:37;;;;;;;6.25;1.10;;;11.20;90.50;;;;;;4940690;28;20028;-75
2022/05/28 00:23:04;;;;;;;5.50;0.93;;;11.20;90.30;;;;;;4935831;28;20042;-76
2022/05/28 00:25:29;;;;;;;6.80;0.98;;;11.20;90.30;;;;;;4935005;28;20036;-76
2022/05/28 00:27:55;;;;;;;4.50;0.98;;;11.20;90.10;;;;;;4933976;28;20039;-76
2022/05/28 00:30:22;;;;;;;8.88;1.50;;;11.30;90.10;;;;;;4945531;28;20070;-75
2022/05/28 00:32:47;;;;;;;5.40;1.08;;;11.30;89.90;;;;;;4947025;28;20083;-76
2022/05/28 00:35:16;;;;;;;8.43;1.33;;;11.30;89.60;;;;;;4937334;28;20094;-76
2022/05/28 00:37:43;;;;;;;5.70;1.10;;;11.30;90.00;;;;;;4936950;28;20036;-76
2022/05/28 00:40:15;;;;;;;4.50;1.42;;;11.20;90.00;;;;;;4939068;28;20542;-75
2022/05/28 00:42:41;;;;;;;4.68;1.23;;;11.20;90.20;;;;;;4933821;28;20160;-76
2022/05/28 00:45:08;;;;;;;8.50;1.30;;;11.20;90.10;;;;;;4933298;28;20035;-76
2022/05/28 00:47:35;;;;;;;4.80;1.00;;;11.20;89.80;;;;;;4937198;28;20039;-76
2022/05/28 00:50:04;;;;;;;3.28;0.90;;;11.20;89.60;;;;;;4940541;28;20068;-76
2022/05/28 00:52:30;;;;;;;5.35;0.93;;;11.30;89.20;;;;;;4941607;28;20830;-76
2022/05/28 00:54:57;;;;;;;6.78;0.82;;;11.20;88.80;;;;;;4936489;28;20035;-76
2022/05/28 00:57:23;;;;;;;7.45;1.17;;;11.20;88.90;;;;;;4933865;28;20043;-76
2022/05/28 00:59:49;;;;;;;5.95;1.00;;;11.20;88.40;;;;;;4935807;28;20035;-76
2022/05/28 01:02:31;;;;;;;4.30;0.73;;;11.20;88.60;;;;;;4933894;28;20042;-76
2022/05/28 01:05:16;;;;;;;7.07;0.80;;;11.20;89.00;;;;;;4935834;28;20037;-76
2022/05/28 01:08:12;;;;;;;7.32;1.42;;;11.10;88.80;;;;;;4943021;28;20153;-76
2022/05/28 01:10:53;;;;;;;4.25;1.02;;;11.10;89.10;;;;;;4936669;28;20027;-76
2022/05/28 01:13:44;;;;;;;5.43;1.00;;;11.00;88.70;;;;;;4936604;28;20570;-76
2022/05/28 01:16:21;;;;;;;5.32;1.13;;;11.10;88.70;;;;;;4922985;28;20048;-76
2022/05/28 01:19:01;;;;;;;3.78;1.00;;;11.10;88.80;;;;;;4936262;28;20167;-76
2022/05/28 01:21:50;;;;;;;5.65;1.00;;;11.00;88.40;;;;;;4930963;28;20031;-76
2022/05/28 01:24:37;;;;;;;9.30;1.40;;;11.00;88.50;;;;;;4933538;28;20730;-76
2022/05/28 01:27:25;;;;;;;7.45;1.00;;;11.00;88.20;;;;;;4934843;28;20032;-75
2022/05/28 01:29:54;;;;;;;6.68;1.23;;;11.00;88.70;;;;;;4909839;28;20075;-75
2022/05/28 01:32:25;;;;;;;4.68;1.13;;;10.90;89.30;;;;;;4922800;28;20085;-76
2022/05/28 01:34:53;;;;;;;8.68;1.00;;;11.00;88.80;;;;;;4936331;28;20502;-76
2022/05/28 01:37:19;;;;;;;6.13;1.00;;;10.90;88.60;;;;;;4933840;28;20138;-76
2022/05/28 01:39:47;;;;;;;6.75;1.15;;;11.00;88.90;;;;;;4930500;28;20052;-75
2022/05/28 01:42:14;;;;;;;12.10;1.25;;;10.90;89.20;;;;;;4939937;28;20135;-77
2022/05/28 01:44:43;;;;;;;4.82;0.93;;;10.90;89.30;;;;;;4943392;28;20031;-77
2022/05/28 01:47:12;;;;;;;4.88;0.80;;;11.00;89.00;;;;;;4937345;28;20050;-76
2022/05/28 01:49:39;;;;;;;6.78;1.15;;;11.00;88.90;;;;;;4935339;28;20031;-78
2022/05/28 01:52:06;;;;;;;4.75;1.38;;;11.00;89.00;;;;;;4938321;28;20114;-78
2022/05/28 01:54:40;;;;;;;3.47;1.00;;;11.00;89.00;;;;;;4928909;28;20101;-78
2022/05/28 01:57:06;;;;;;;5.45;1.35;;;11.00;89.00;;;;;;4936760;28;20035;-79
2022/05/28 01:59:34;;;;;;;5.32;1.17;;;11.00;89.30;;;;;;4951506;28;20054;-78
2022/05/28 02:02:04;;;;;;;9.70;1.73;;;11.00;89.30;;;;;;4948106;28;20027;-79
2022/05/28 02:04:30;;;;;;;4.00;1.33;;;11.00;89.00;;;;;;4944011;28;20065;-78
2022/05/28 02:06:56;;;;;;;4.78;1.10;;;11.00;89.20;;;;;;4941848;28;20042;-78
2022/05/28 02:09:30;;;;;;;8.68;1.15;;;10.90;89.40;;;;;;4948790;28;20686;-78
2022/05/28 02:12:28;;;;;;;3.92;0.82;;;10.90;89.20;;;;;;4938680;28;20085;-78
2022/05/28 02:15:06;;;;;;;5.30;1.25;;;10.90;89.20;;;;;;4910152;28;20049;-79
2022/05/28 02:17:50;;;;;;;10.25;1.00;;;10.90;88.90;;;;;;4935278;28;20163;-77
2022/05/28 02:20:35;;;;;;;6.22;1.08;;;10.90;89.30;;;;;;4938985;28;20036;-78
2022/05/28 02:23:30;;;;;;;5.07;0.70;;;10.90;88.90;;;;;;4934736;28;20045;-78
2022/05/28 02:26:10;;;;;;;6.55;0.77;;;10.80;89.00;;;;;;4936580;28;20415;-78
2022/05/28 02:28:36;;;;;;;4.53;1.20;;;10.80;89.40;;;;;;4948846;28;20031;-78
2022/05/28 02:31:13;;;;;;;5.70;1.23;;;10.80;89.70;;;;;;4947020;28;20894;-78
2022/05/28 02:33:39;;;;;;;5.75;1.00;;;10.80;89.90;;;;;;4921916;29;20031;-78
2022/05/28 02:36:05;;;;;;;5.13;0.88;;;10.80;89.80;;;;;;4947856;28;20040;-78
2022/05/28 02:38:30;;;;;;;6.80;0.80;;;10.80;89.90;;;;;;4948939;28;20505;-78
2022/05/28 02:40:56;;;;;;;8.18;0.90;;;10.70;89.90;;;;;;4946119;28;20848;-78
2022/05/28 02:43:23;;;;;;;7.15;0.93;;;10.70;90.00;;;;;;4948646;28;20109;-78
2022/05/28 02:45:49;;;;;;;3.45;0.88;;;10.70;90.20;;;;;;4937365;28;20039;-78
2022/05/28 02:48:15;;;;;;;6.32;1.10;;;10.60;90.40;;;;;;4937126;28;20039;-78
2022/05/28 02:50:41;;;;;;;6.90;1.15;;;10.60;90.40;;;;;;4942359;28;20066;-78
2022/05/28 02:53:07;;;;;;;6.68;0.90;;;10.60;90.40;;;;;;4940117;28;20876;-79
2022/05/28 02:55:34;;;;;;;5.25;1.02;;;10.60;90.40;;;;;;4938099;28;20764;-79
2022/05/28 02:58:00;;;;;;;5.72;0.95;;;10.60;90.50;;;;;;4938410;28;20023;-79
2022/05/28 03:00:26;;;;;;;5.28;0.90;;;10.60;90.70;;;;;;4947339;28;20031;-78
2022/05/28 03:02:52;;;;;;;6.10;1.10;;;10.50;90.70;;;;;;4941323;28;20800;-79
2022/05/28 03:05:21;;;;;;;9.15;1.10;;;10.50;90.90;;;;;;4942843;28;20039;-78
2022/05/28 03:07:47;;;;;;;7.97;1.23;;;10.50;90.80;;;;;;4943452;28;20046;-77
2022/05/28 03:10:13;;;;;;;5.13;0.70;;;10.50;90.90;;;;;;4930336;28;20066;-78
2022/05/28 03:12:40;;;;;;;8.32;1.15;;;10.50;90.90;;;;;;4932594;28;20035;-77
2022/05/28 03:15:07;;;;;;;5.60;1.08;;;10.50;90.90;;;;;;4920883;28;20074;-77
2022/05/28 03:17:33;;;;;;;6.57;1.02;;;10.50;90.90;;;;;;4932709;28;20122;-77
2022/05/28 03:20:01;;;;;;;4.22;1.00;;;10.60;90.90;;;;;;4938030;28;20035;-77
2022/05/28 03:22:28;;;;;;;5.28;0.88;;;10.60;90.90;;;;;;4937455;28;20089;-77
2022/05/28 03:24:53;;;;;;;4.85;1.00;;;10.60;90.80;;;;;;4941741;28;20039;-77
2022/05/28 03:27:20;;;;;;;8.10;0.98;;;10.70;90.80;;;;;;4944490;28;20035;-77
2022/05/28 03:29:45;;;;;;;5.40;1.30;;;10.70;90.70;;;;;;4942313;28;20038;-77
2022/05/28 03:32:11;;;;;;;8.32;1.13;;;10.80;90.60;;;;;;4929357;28;20913;-77
2022/05/28 03:34:37;;;;;;;7.15;0.98;;;10.80;90.50;;;;;;4933467;28;20043;-77
2022/05/28 03:37:03;;;;;;;6.07;1.10;;;10.90;90.40;;;;;;4936137;28;20992;-77
2022/05/28 03:39:29;;;;;;;5.32;1.10;;;10.90;90.20;;;;;;4945354;28;20030;-77
2022/05/28 03:41:54;;;;;;;4.55;0.98;;;10.90;90.20;;;;;;4951900;28;20033;-77
2022/05/28 03:44:20;;;;;;;7.18;0.98;;;11.00;90.00;;;;;;4945129;28;20042;-77
2022/05/28 03:46:46;;;;;;;5.55;0.90;;;11.10;89.70;;;;;;4945694;28;20117;-77
2022/05/28 03:49:23;;;;;;;3.47;1.23;;;11.20;89.10;;;;;;4946969;28;20675;-77
2022/05/28 03:51:49;;;;;;;8.15;1.27;;;11.30;88.70;;;;;;4936065;28;20038;-77
2022/05/28 03:54:15;;;;;;;6.10;1.00;;;11.50;88.00;;;;;;4946615;28;20526;-77
2022/05/28 03:56:42;;;;;;;3.88;0.75;;;11.60;87.20;;;;;;4943459;28;20041;-77
2022/05/28 03:59:08;;;;;;;9.35;1.10;;;11.60;87.00;;;;;;4944283;28;20696;-77
2022/05/28 04:01:34;;;;;;;4.45;0.88;;;11.70;86.90;;;;;;4948011;28;20042;-77
2022/05/28 04:04:00;;;;;;;5.78;1.00;;;11.70;86.10;;;;;;4941117;28;20060;-77
2022/05/28 04:06:26;;;;;;;3.80;0.70;;;11.70;85.80;;;;;;4942451;28;20039;-77
2022/05/28 04:08:52;;;;;;;4.95;1.00;;;11.70;85.90;;;;;;4938691;28;20023;-77
2022/05/28 04:11:18;;;;;;;5.85;0.68;;;11.70;85.90;;;;;;4942571;28;20130;-78
2022/05/28 04:13:44;;;;;;;3.08;1.00;;;11.70;85.40;;;;;;4921827;28;20049;-77
2022/05/28 04:16:11;;;;;;;3.33;0.82;;;11.70;85.40;;;;;;4945319;28;20523;-77
2022/05/28 04:18:37;;;;;;;4.53;0.93;;;11.70;85.40;;;;;;4936836;28;20138;-77
2022/05/28 04:21:03;;;;;;;7.97;0.90;;;11.70;85.40;;;;;;4935346;28;20538;-77
2022/05/28 04:23:28;;;;;;;4.10;0.98;;;11.70;85.30;;;;;;4940611;28;20042;-77
2022/05/28 04:25:54;;;;;;;6.10;1.08;;;11.70;84.80;;;;;;4936348;28;20039;-77
2022/05/28 04:28:20;;;;;;;2.22;0.77;;;11.70;85.10;;;;;;4945025;28;20134;-77
2022/05/28 04:30:46;;;;;;;4.43;0.90;;;11.80;85.50;;;;;;4934541;28;20130;-77
2022/05/28 04:33:11;;;;;;;5.80;1.25;;;11.80;85.40;;;;;;4942120;28;20751;-77
2022/05/28 04:35:38;;;;;;;5.32;0.93;;;11.80;85.10;;;;;;4944953;28;20039;-77
2022/05/28 04:38:04;;;;;;;3.63;0.82;;;11.70;85.60;;;;;;4940394;28;20134;-77
2022/05/28 04:40:29;;;;;;;6.38;0.95;;;11.70;86.10;;;;;;4944660;28;20495;-76
2022/05/28 04:42:55;;;;;;;6.03;1.02;;;11.60;87.60;;;;;;4931520;28;20032;-76
2022/05/28 04:45:21;;;;;;;5.85;1.05;;;11.50;88.90;;;;;;4938442;28;20472;-76
2022/05/28 04:47:47;;;;;;;7.30;0.90;;;11.40;90.10;;;;;;4948038;28;20041;-76
2022/05/28 04:50:13;;;;;;;3.17;0.90;;;11.30;90.60;;;;;;4940793;28;20040;-77
2022/05/28 04:52:39;;;;;;;10.15;1.10;;;11.10;91.00;;;;;;4949981;28;20039;-77
2022/05/28 04:55:10;;;;;;;7.13;0.98;;;11.00;91.50;;;;;;4950617;28;20038;-77
2022/05/28 04:57:36;;;;;;;3.22;1.00;;;11.00;92.00;;;;;;4942154;28;20537;-76
2022/05/28 05:00:06;;;;;;;4.82;1.65;;;11.00;92.10;;;;;;4945903;28;20126;-76
2022/05/28 05:02:32;;;;;;;3.88;0.98;;;10.90;92.50;;;;;;4941447;28;20058;-77
2022/05/28 05:04:58;;;;;;;8.45;1.27;;;10.90;92.80;;;;;;4945118;28;20130;-76
2022/05/28 05:07:25;;;;;;;4.30;1.13;;;10.80;93.00;;;;;;4943229;28;20039;-76
2022/05/28 05:09:50;;;;;;;3.92;0.80;;;11.00;92.80;;;;;;4940706;28;20106;-77
2022/05/28 05:12:17;;;;;;;5.38;1.20;;;11.20;92.40;;;;;;4943670;28;20048;-77
2022/05/28 05:14:43;;;;;;;4.55;1.05;;;11.30;91.70;;;;;;4943094;28;20550;-78
2022/05/28 05:17:08;;;;;;;9.32;1.52;;;11.30;91.90;;;;;;4936727;28;20049;-78
2022/05/28 05:19:34;;;;;;;5.78;1.45;;;11.40;92.10;;;;;;4945387;28;20033;-78
2022/05/28 05:22:00;;;;;;;4.65;1.05;;;11.60;92.00;;;;;;4943762;28;20038;-78
2022/05/28 05:24:26;;;;;;;3.78;0.90;;;11.70;91.60;;;;;;4949342;28;20018;-78
2022/05/28 05:26:52;;;;;;;4.07;1.05;;;11.90;91.40;;;;;;4946064;28;20039;-78
2022/05/28 05:29:18;;;;;;;4.60;0.90;;;12.10;90.60;;;;;;4946124;28;20101;-78
2022/05/28 05:31:44;;;;;;;3.25;0.70;;;12.10;90.40;;;;;;4945140;28;20070;-78
2022/05/28 05:34:10;;;;;;;7.15;1.27;;;12.40;89.10;;;;;;4943641;28;20051;-78
2022/05/28 05:36:36;;;;;;;3.58;0.82;;;12.50;87.80;;;;;;4941411;28;20039;-78
2022/05/28 05:39:02;;;;;;;6.20;0.80;;;12.70;87.40;;;;;;4938421;28;20036;-78
2022/05/28 05:41:28;;;;;;;2.45;1.00;;;12.80;86.80;;;;;;4943489;28;20031;-79
2022/05/28 05:43:54;;;;;;;4.20;0.68;;;12.90;86.40;;;;;;4939194;28;20039;-76
2022/05/28 05:46:20;;;;;;;3.15;0.80;;;13.10;86.50;;;;;;4938390;28;20071;-78
2022/05/28 05:48:45;;;;;;;3.17;0.75;;;13.20;85.80;;;;;;4939464;28;20222;-78
2022/05/28 05:51:15;;;;;;;3.00;0.90;;;13.40;84.50;;;;;;4943529;28;20045;-78
2022/05/28 05:53:42;;;;;;;3.60;0.77;;;13.50;83.80;;;;;;4936518;28;20031;-78
2022/05/28 05:56:08;;;;;;;4.07;1.02;;;13.40;81.80;;;;;;4934384;28;20031;-78
2022/05/28 05:58:34;;;;;;;4.80;0.93;;;13.30;83.10;;;;;;4937180;28;20035;-78
2022/05/28 06:01:02;;;;;;;3.45;0.70;;;13.30;83.00;;;;;;4933627;28;20047;-78
2022/05/28 06:03:28;;;;;;;3.70;1.00;;;13.30;82.50;;;;;;4939473;28;20031;-79
2022/05/28 06:05:58;;;;;;;2.83;1.20;;;13.30;83.10;;;;;;4943081;28;20039;-78
2022/05/28 06:08:25;;;;;;;3.42;0.75;;;13.40;81.60;;;;;;4945200;28;20495;-78
2022/05/28 06:10:51;;;;;;;5.38;1.17;;;13.40;81.00;;;;;;4942058;28;20118;-79
2022/05/28 06:13:16;;;;;;;4.22;0.80;;;13.70;81.50;;;;;;4939388;28;20760;-78
2022/05/28 06:15:43;;;;;;;3.60;0.90;;;14.10;79.20;;;;;;4942100;28;20034;-79
2022/05/28 06:18:08;;;;;;;10.27;1.23;;;14.40;77.10;;;;;;4942242;28;20042;-78
2022/05/28 06:20:34;;;;;;;5.50;1.15;;;14.10;75.70;;;;;;4941280;28;20031;-78
2022/05/28 06:23:01;;;;;;;2.83;0.80;;;14.00;76.20;;;;;;4943137;28;20756;-78
2022/05/28 06:25:27;;;;;;;6.55;0.85;;;13.90;77.50;;;;;;4930181;28;20114;-79
2022/05/28 06:27:53;;;;;;;5.03;0.90;;;14.10;77.60;;;;;;4937892;28;20801;-79
2022/05/28 06:30:19;;;;;;;5.10;0.73;;;14.30;77.00;;;;;;4943222;28;20042;-79
2022/05/28 06:32:45;;;;;;;3.85;0.70;;;14.40;74.40;;;;;;4942794;28;20019;-79
2022/05/28 06:35:11;;;;;;;6.07;0.95;;;14.60;75.20;;;;;;4940467;28;20032;-78
2022/05/28 06:37:36;;;;;;;4.72;0.70;;;14.80;72.80;;;;;;4941586;28;20549;-79
2022/05/28 06:40:03;;;;;;;4.30;0.80;;;14.80;73.20;;;;;;4939149;28;20085;-78
2022/05/28 06:42:29;;;;;;;5.70;1.55;;;14.80;73.00;;;;;;4938818;28;20019;-79
2022/05/28 06:44:55;;;;;;;6.40;1.35;;;14.60;73.20;;;;;;4924041;28;20031;-79
2022/05/28 06:47:22;;;;;;;6.40;0.85;;;14.50;74.20;;;;;;4946120;28;20134;-78
2022/05/28 06:51:01;;;;;;;4.63;0.90;;;14.20;73.80;;;;;;4939742;28;20529;-77
2022/05/28 06:52:33;;;;;;;7.70;1.27;;;14.00;74.20;;;;;;4938789;28;20078;-78
2022/05/28 06:54:59;;;;;;;2.97;0.70;;;13.70;75.50;;;;;;4938856;28;20763;-77
2022/05/28 06:57:24;;;;;;;8.70;1.50;;;13.60;76.50;;;;;;4935505;28;20046;-77
2022/05/28 06:59:52;;;;;;;6.00;1.83;;;13.70;77.70;;;;;;4937323;28;20034;-77
2022/05/28 07:02:18;;;;;;;3.67;0.98;;;13.80;77.60;;;;;;4935395;28;20027;-77
2022/05/28 07:04:45;;;;;;;7.10;1.23;;;14.00;76.20;;;;;;4938851;28;20035;-75
2022/05/28 07:07:11;;;;;;;3.47;0.57;;;14.30;75.30;;;;;;4935052;28;20114;-78
2022/05/28 07:09:37;;;;;;;4.18;1.00;;;14.50;74.40;;;;;;4940239;28;20041;-75
2022/05/28 07:12:03;;;;;;;2.33;0.80;;;14.50;73.00;;;;;;4945813;28;20035;-76
2022/05/28 07:14:29;;;;;;;3.13;1.30;;;14.40;72.00;;;;;;4944138;28;20062;-76
2022/05/28 07:16:54;;;;;;;4.68;1.35;;;14.50;71.70;;;;;;4939188;28;20158;-75
2022/05/28 07:19:20;;;;;;;5.25;1.10;;;14.60;72.80;;;;;;4934935;28;20462;-73
2022/05/28 07:21:46;;;;;;;5.38;1.52;;;14.70;72.10;;;;;;4932418;28;20575;-79
2022/05/28 07:24:12;;;;;;;2.80;0.98;;;15.00;70.10;;;;;;4942145;28;20039;-71
2022/05/28 07:26:37;;;;;;;13.18;1.63;;;15.00;69.20;;;;;;4939104;28;20039;-72
2022/05/28 07:29:13;;;;;;;4.78;1.27;;;15.00;70.20;;;;;;4939261;28;20027;-75
2022/05/28 07:32:01;;;;;;;3.88;1.00;;;15.20;69.00;;;;;;4941679;28;20039;-77
2022/05/28 07:34:27;;;;;;;8.43;1.40;;;15.70;68.80;;;;;;4943151;28;20089;-77
2022/05/28 07:36:53;;;;;;;9.38;1.55;;;15.90;67.00;;;;;;4933073;28;20565;-78
2022/05/28 07:39:18;;;;;;;5.03;1.20;;;15.90;66.10;;;;;;4948896;28;20063;-78
2022/05/28 07:41:44;;;;;;;7.03;1.13;;;16.00;68.00;;;;;;4942428;28;20062;-77
2022/05/28 07:44:10;;;;;;;5.78;1.38;;;16.30;66.70;;;;;;4945527;28;20079;-78
2022/05/28 07:46:36;;;;;;;3.97;0.90;;;16.20;64.40;;;;;;4954736;28;20510;-76
2022/05/28 07:49:03;;;;;;;6.32;1.45;;;16.00;65.40;;;;;;4936873;28;20789;-77
2022/05/28 07:51:29;;;;;;;9.45;1.42;;;15.90;66.00;;;;;;4938747;28;20480;-77
2022/05/28 07:53:56;;;;;;;3.70;0.93;;;15.80;65.60;;;;;;4944491;28;20039;-78
2022/05/28 07:56:22;;;;;;;5.47;1.30;;;15.70;66.20;;;;;;4931769;28;20035;-75
2022/05/28 07:58:50;;;;;;;7.78;1.10;;;15.60;67.00;;;;;;4929463;28;20035;-77
2022/05/28 08:01:39;;;;;;;11.88;1.38;;;15.50;65.80;;;;;;4936689;28;20035;-79
2022/05/28 08:04:05;;;;;;;7.00;0.95;;;15.50;67.00;;;;;;4936869;28;20657;-73
2022/05/28 08:06:31;;;;;;;3.70;1.00;;;15.50;66.10;;;;;;4935414;28;20039;-78
2022/05/28 08:08:57;;;;;;;2.85;1.02;;;15.50;65.10;;;;;;4941869;28;20038;-71
2022/05/28 08:11:24;;;;;;;6.38;1.00;;;15.60;66.10;;;;;;4936123;28;20168;-77
2022/05/28 08:13:51;;;;;;;6.32;1.08;;;15.70;64.30;;;;;;4932255;28;20035;-79
2022/05/28 08:16:18;;;;;;;13.88;1.00;;;16.10;65.10;;;;;;4937389;28;20575;-75
2022/05/28 08:18:44;;;;;;;3.75;1.33;;;16.70;61.70;;;;;;4937125;28;20051;-78
2022/05/28 08:23:54;;;;;;;5.05;1.27;;;17.30;59.70;;;;;;4937665;28;20039;-78
2022/05/28 08:26:21;;;;;;;6.55;1.40;;;17.20;59.50;;;;;;4939975;28;20054;-78
2022/05/28 08:28:48;;;;;;;8.93;1.65;;;17.20;60.50;;;;;;4945779;28;20033;-78
2022/05/28 08:31:15;;;;;;;5.90;1.35;;;17.30;59.20;;;;;;4932531;28;20499;-78
2022/05/28 08:33:41;;;;;;;5.63;1.35;;;17.30;58.80;;;;;;4936140;28;20037;-79
2022/05/28 08:36:47;;;;;;;6.35;1.13;;;17.10;58.90;;;;;;4941700;28;20893;-77
2022/05/28 08:39:13;;;;;;;5.57;0.90;;;17.00;58.90;;;;;;4934523;28;20047;-77
2022/05/28 08:41:52;;;;;;;7.13;1.67;;;16.80;59.30;;;;;;4939662;28;20041;-79
2022/05/28 08:44:22;;;;;;;4.82;1.00;;;16.80;61.10;;;;;;4939298;28;20708;-79
2022/05/28 08:46:54;;;;;;;6.95;1.05;;;16.90;60.00;;;;;;4940216;28;20865;-79
2022/05/28 08:49:24;;;;;;;9.82;2.72;;;17.00;58.70;;;;;;4944066;28;20044;-79
2022/05/28 08:52:04;;;;;;;18.55;7.15;;;17.30;59.30;;;;;;4919842;29;20807;-74
2022/05/28 08:54:56;;;;;;;6.30;3.20;;;17.90;58.60;;;;;;4935047;28;20154;-81
2022/05/28 08:57:47;;;;;;;13.63;12.23;;;18.20;57.20;;;;;;4935625;28;20040;-75
2022/05/28 09:00:37;;;;;;;3.72;1.67;;;18.10;56.70;;;;;;4955488;28;20039;-75
2022/05/28 09:03:10;;;;;;;6.43;1.58;;;18.20;55.80;;;;;;4940894;28;20043;-75
2022/05/28 09:05:54;;;;;;;3.97;1.50;;;18.20;54.00;;;;;;4950736;28;20088;-75
2022/05/28 09:08:31;;;;;;;2.58;0.93;;;17.80;55.70;;;;;;4943781;28;20032;-75
2022/05/28 09:11:03;;;;;;;8.90;1.38;;;17.30;57.30;;;;;;4945530;28;20485;-75
2022/05/28 09:13:48;;;;;;;8.48;1.40;;;16.90;58.40;;;;;;4943005;28;20490;-75
2022/05/28 09:16:27;;;;;;;5.93;1.70;;;17.00;59.50;;;;;;4953217;28;20047;-75
2022/05/28 09:18:55;;;;;;;4.95;1.20;;;17.40;59.20;;;;;;4946692;28;20589;-75
2022/05/28 09:21:21;;;;;;;9.30;1.33;;;17.90;57.70;;;;;;4943775;28;20118;-76
2022/05/28 09:24:02;;;;;;;6.75;1.33;;;18.50;55.40;;;;;;4943671;28;20041;-73
2022/05/28 09:26:55;;;;;;;12.35;1.42;;;18.80;54.80;;;;;;4934828;28;20046;-74
2022/05/28 09:29:42;;;;;;;3.83;1.25;;;19.00;52.70;;;;;;4936676;28;20620;-74
2022/05/28 09:32:32;;;;;;;4.40;1.20;;;18.70;53.80;;;;;;4945725;28;20155;-74
2022/05/28 09:35:18;;;;;;;3.53;1.42;;;18.30;54.60;;;;;;4942219;28;20042;-74
2022/05/28 09:38:01;;;;;;;6.18;0.85;;;17.70;58.80;;;;;;4921604;28;20092;-75
2022/05/28 09:40:46;;;;;;;7.10;1.02;;;16.90;62.60;;;;;;4946976;28;20027;-75
2022/05/28 09:43:50;;;;;;;1.80;0.88;;;16.30;67.00;;;;;;4932587;28;20562;-75
2022/05/28 09:46:36;;;;;;;4.82;1.08;;;16.00;69.50;;;;;;4938626;28;20058;-76
2022/05/28 09:49:10;;;;;;;6.43;1.35;;;16.40;68.30;;;;;;4933267;28;20114;-75
2022/05/28 09:51:36;;;;;;;3.17;1.20;;;17.10;68.20;;;;;;4942111;28;20039;-74
2022/05/28 09:54:18;;;;;;;4.50;1.00;;;17.50;66.30;;;;;;4936956;28;20755;-73
2022/05/28 09:56:51;;;;;;;6.53;1.27;;;17.50;64.70;;;;;;4941349;28;20043;-74
2022/05/28 09:59:35;;;;;;;4.40;1.20;;;17.60;66.90;;;;;;4948194;28;20584;-72
2022/05/28 10:02:07;;;;;;;7.38;1.15;;;18.20;65.50;;;;;;4939532;28;20110;-73
2022/05/28 10:04:53;;;;;;;8.95;1.20;;;18.60;61.50;;;;;;4920285;28;20032;-73
2022/05/28 10:07:44;;;;;;;3.47;1.17;;;19.00;57.50;;;;;;4938546;28;20058;-73
2022/05/28 10:10:20;;;;;;;6.45;1.40;;;18.90;58.70;;;;;;4944015;28;20039;-73
2022/05/28 10:12:47;;;;;;;4.20;1.08;;;18.70;56.30;;;;;;4937960;28;20118;-73
2022/05/28 10:15:17;;;;;;;6.65;1.40;;;18.50;57.40;;;;;;4944377;28;20122;-74
2022/05/28 10:18:06;;;;;;;6.13;1.35;;;18.30;57.50;;;;;;4940987;28;20035;-73
2022/05/28 10:20:31;;;;;;;8.32;1.65;;;18.50;56.80;;;;;;4938189;28;20403;-74
2022/05/28 10:23:01;;;;;;;5.20;1.60;;;18.50;55.20;;;;;;4920857;29;20031;-76
2022/05/28 10:25:32;;;;;;;3.80;1.30;;;18.30;56.20;;;;;;4950900;28;20559;-74
2022/05/28 10:27:58;;;;;;;6.82;1.88;;;18.40;55.40;;;;;;4940399;28;20038;-72
2022/05/28 10:30:32;;;;;;;19.15;1.67;;;18.50;52.90;;;;;;4942287;28;20043;-72
2022/05/28 10:33:01;;;;;;;7.80;1.55;;;18.40;53.80;;;;;;4933299;28;20055;-72
2022/05/28 10:35:29;;;;;;;4.03;1.15;;;18.50;53.10;;;;;;4934478;28;20347;-72
2022/05/28 10:38:14;;;;;;;7.35;1.65;;;18.50;52.90;;;;;;4939208;28;20566;-71
2022/05/28 10:40:51;;;;;;;5.47;1.40;;;18.80;52.30;;;;;;4933999;28;20547;-71
2022/05/28 10:43:33;;;;;;;8.77;1.75;;;19.00;52.70;;;;;;4940785;28;20050;-74
2022/05/28 10:46:13;;;;;;;7.97;1.45;;;18.60;53.00;;;;;;4937456;28;20019;-76
2022/05/28 10:49:03;;;;;;;3.13;1.00;;;18.00;54.80;;;;;;4934008;28;20023;-75
2022/05/28 10:51:59;;;;;;;7.13;1.13;;;17.40;56.20;;;;;;4936621;28;20035;-77
2022/05/28 10:54:25;;;;;;;5.15;1.33;;;17.20;57.80;;;;;;4940889;28;20830;-76
2022/05/28 10:56:53;;;;;;;7.43;1.55;;;17.20;58.70;;;;;;4939444;28;20051;-76
2022/05/28 11:00:08;;;;;;;5.05;1.20;;;17.70;57.50;;;;;;4936025;28;20582;-76
2022/05/28 11:03:11;;;;;;;5.70;1.50;;;18.20;55.60;;;;;;4925890;28;20051;-78
2022/05/28 11:06:04;;;;;;;4.45;1.30;;;18.70;54.50;;;;;;4931313;28;20039;-77
2022/05/28 11:08:50;;;;;;;6.88;1.73;;;18.90;53.00;;;;;;4935739;28;20893;-76
2022/05/28 11:11:33;;;;;;;4.93;1.33;;;19.10;50.30;;;;;;4944390;28;20779;-76
2022/05/28 11:14:11;;;;;;;6.53;1.38;;;18.90;52.00;;;;;;4934556;28;20040;-76
2022/05/28 11:17:12;;;;;;;2.42;0.98;;;18.60;53.30;;;;;;4936442;28;20035;-75
2022/05/28 11:19:45;;;;;;;6.32;1.02;;;18.50;55.00;;;;;;4921975;28;20668;-76
2022/05/28 11:22:31;;;;;;;7.60;1.30;;;18.80;54.80;;;;;;4939837;28;20054;-76
2022/05/28 11:25:05;;;;;;;6.07;0.98;;;18.80;55.30;;;;;;4930816;28;20544;-76
2022/05/28 11:27:46;;;;;;;5.03;0.80;;;18.80;54.60;;;;;;4935801;28;20035;-76
2022/05/28 11:30:21;;;;;;;3.25;0.80;;;18.90;54.90;;;;;;4941427;28;20053;-76
2022/05/28 11:32:55;;;;;;;2.40;0.90;;;19.10;54.40;;;;;;4935712;28;20082;-76
2022/05/28 11:35:39;;;;;;;4.05;0.98;;;19.10;54.60;;;;;;4932737;28;20039;-75
2022/05/28 11:38:16;;;;;;;6.22;1.30;;;19.30;54.30;;;;;;4931873;28;20054;-75
2022/05/28 11:40:49;;;;;;;3.80;0.93;;;19.40;54.00;;;;;;4938244;28;20494;-76
2022/05/28 11:43:40;;;;;;;3.00;0.80;;;19.60;55.40;;;;;;4936371;28;20043;-76
2022/05/28 11:46:35;;;;;;;5.20;1.10;;;19.80;54.70;;;;;;4939025;28;20101;-75
2022/05/28 11:52:07;;;;;;;5.18;1.13;;;19.70;53.50;;;;;;4940637;28;20040;-75
2022/05/28 11:54:41;;;;;;;3.30;1.20;;;19.50;55.00;;;;;;4940508;28;20038;-76
2022/05/28 11:57:32;;;;;;;7.05;1.58;;;19.40;51.90;;;;;;4940155;28;20044;-75
2022/05/28 12:00:00;;;;;;;7.15;1.65;;;19.30;52.10;;;;;;4935422;28;20035;-75
2022/05/28 12:02:33;;;;;;;2.17;1.00;;;19.00;51.20;;;;;;4947729;28;20169;-75
2022/05/28 12:05:01;;;;;;;3.53;0.98;;;18.80;51.60;;;;;;4938813;28;20395;-75
2022/05/28 12:07:40;;;;;;;4.47;0.82;;;18.90;53.30;;;;;;4944199;28;20027;-75
2022/05/28 12:10:28;;;;;;;2.42;0.70;;;19.00;52.60;;;;;;4946712;28;20039;-75
2022/05/28 12:13:01;;;;;;;7.10;1.17;;;19.00;52.40;;;;;;4941630;28;20035;-75
2022/05/28 12:15:30;;;;;;;4.75;1.30;;;19.20;53.00;;;;;;4937991;28;20102;-75
2022/05/28 12:18:18;;;;;;;3.13;0.75;;;19.20;52.50;;;;;;4941447;28;20569;-75
2022/05/28 12:20:59;;;;;;;3.75;0.80;;;19.00;52.90;;;;;;4937119;28;20151;-74
2022/05/28 12:23:31;;;;;;;4.05;0.95;;;19.10;52.50;;;;;;4944514;28;20046;-75
2022/05/28 12:25:56;;;;;;;5.50;0.70;;;19.20;52.80;;;;;;4922483;29;20530;-75
2022/05/28 12:28:31;;;;;;;2.25;0.60;;;19.20;51.70;;;;;;4944818;28;20133;-75
2022/05/28 12:31:02;;;;;;;5.67;1.03;;;18.90;53.30;;;;;;4941580;28;20051;-74
2022/05/28 12:33:30;;;;;;;7.85;1.33;;;18.70;54.70;;;;;;4942289;28;20191;-75
2022/05/28 12:36:21;;;;;;;6.00;1.00;;;18.30;56.50;;;;;;4935963;28;20051;-75
2022/05/28 12:38:59;;;;;;;5.20;1.10;;;17.90;57.60;;;;;;4931344;28;20150;-76
2022/05/28 12:41:31;;;;;;;3.58;1.38;;;17.50;59.30;;;;;;4938427;28;20035;-76
2022/05/28 12:44:18;;;;;;;2.25;0.85;;;17.00;65.40;;;;;;4935744;28;20105;-76
2022/05/28 12:46:51;;;;;;;11.07;3.28;;;16.40;68.80;;;;;;4943396;28;20042;-76
2022/05/28 12:49:25;;;;;;;5.60;1.20;;;16.00;74.60;;;;;;4942070;28;20130;-76
2022/05/28 12:52:02;;;;;;;2.65;0.90;;;15.80;74.30;;;;;;4940443;28;20041;-76
2022/05/28 12:54:30;;;;;;;3.25;1.30;;;15.90;74.00;;;;;;4946647;28;20030;-74
2022/05/28 12:57:29;;;;;;;8.70;1.30;;;16.20;74.30;;;;;;4937193;28;20031;-76
2022/05/28 13:00:14;;;;;;;1.67;0.77;;;16.70;71.30;;;;;;4944749;28;20030;-75
2022/05/28 13:02:44;;;;;;;2.30;0.90;;;17.20;68.00;;;;;;4941914;28;20027;-75
2022/05/28 13:05:24;;;;;;;4.25;0.80;;;17.10;67.40;;;;;;4941253;28;20031;-76
2022/05/28 13:08:00;;;;;;;4.50;1.08;;;17.00;69.30;;;;;;4944626;28;20035;-72
2022/05/28 13:10:28;;;;;;;7.28;1.45;;;16.80;67.30;;;;;;4944891;28;20039;-76
2022/05/28 13:13:41;;;;;;;5.43;1.30;;;16.70;67.40;;;;;;4934010;28;20031;-76
2022/05/28 13:16:29;;;;;;;2.80;1.20;;;17.10;69.50;;;;;;4935815;28;20139;-76